createdAt,value
2023-03-19T00:00:31.512Z,97998.28
2023-03-19T00:03:21.405Z,98000.50
2023-03-19T00:06:09.287Z,98002.75
2023-03-19T00:08:58.516Z,98004.25
2023-03-19T00:11:46.574Z,98002.06
2023-03-19T00:14:34.403Z,98001.50
2023-03-19T00:17:22.446Z,98002.75
2023-03-19T00:20:12.201Z,98001.34
2023-03-19T00:22:59.845Z,98009.72
2023-03-19T00:25:49.023Z,98002.50
2023-03-19T00:28:37.699Z,98003.56
2023-03-19T00:31:26.378Z,98008.31
2023-03-19T00:34:14.367Z,98006.94
2023-03-19T00:37:02.274Z,98010.00
2023-03-19T00:39:50.229Z,98012.06
2023-03-19T00:42:39.642Z,98004.41
2023-03-19T00:45:27.910Z,98014.25
2023-03-19T00:48:16.007Z,98005.22
2023-03-19T00:51:05.359Z,98011.50
2023-03-19T00:53:54.027Z,98009.13
2023-03-19T00:56:42.094Z,98008.56
2023-03-19T00:59:31.417Z,98009.66
2023-03-19T01:02:19.407Z,98014.53
2023-03-19T01:05:08.413Z,98010.34
2023-03-19T01:07:56.277Z,98016.59
2023-03-19T01:10:44.765Z,98015.06
2023-03-19T01:13:33.393Z,98017.00
2023-03-19T01:16:22.648Z,98022.53
2023-03-19T01:19:10.307Z,98019.06
2023-03-19T01:21:58.622Z,98019.47
2023-03-19T01:24:49.296Z,98023.22
2023-03-19T01:27:39.288Z,98020.84
2023-03-19T01:30:27.315Z,98017.53
2023-03-19T01:33:18.018Z,98016.94
2023-03-19T01:36:06.618Z,98010.81
2023-03-19T01:38:54.575Z,98018.75
2023-03-19T01:41:43.738Z,98008.31
2023-03-19T01:44:33.544Z,98007.63
2023-03-19T01:47:30.998Z,98013.72
2023-03-19T01:50:27.991Z,98020.56
2023-03-19T01:53:19.298Z,98020.69
2023-03-19T01:56:13.568Z,98020.13
2023-03-19T01:59:07.845Z,98017.59
2023-03-19T02:01:59.615Z,98017.34
2023-03-19T02:04:52.064Z,98016.50
2023-03-19T02:07:46.131Z,98018.47
2023-03-19T02:10:34.968Z,98020.38
2023-03-19T02:13:23.770Z,98016.81
2023-03-19T02:16:12.341Z,98011.66
2023-03-19T02:19:01.426Z,98018.97
2023-03-19T02:21:49.102Z,98022.97
2023-03-19T02:24:46.349Z,98018.09
2023-03-19T02:27:35.601Z,98015.31
2023-03-19T02:30:27.956Z,98025.03
2023-03-19T02:33:19.072Z,98019.47
2023-03-19T02:36:11.436Z,98030.56
2023-03-19T02:39:03.053Z,98028.56
2023-03-19T02:41:52.202Z,98021.78
2023-03-19T02:44:41.268Z,98020.94
2023-03-19T02:47:29.733Z,98021.06
2023-03-19T02:50:17.505Z,98018.69
2023-03-19T02:53:05.606Z,98020.63
2023-03-19T02:55:53.961Z,98021.63
2023-03-19T02:58:41.944Z,98026.88
2023-03-19T03:01:31.362Z,98027.16
2023-03-19T03:04:19.562Z,98023.78
2023-03-19T03:07:08.504Z,98025.72
2023-03-19T03:09:56.825Z,98030.97
2023-03-19T03:12:44.613Z,98027.66
2023-03-19T03:15:32.957Z,98031.25
2023-03-19T03:18:22.494Z,98040.13
2023-03-19T03:21:10.565Z,98045.53
2023-03-19T03:23:58.518Z,98044.69
2023-03-19T03:26:46.750Z,98043.00
2023-03-19T03:29:34.702Z,98037.75
2023-03-19T03:32:22.862Z,98041.34
2023-03-19T03:35:12.145Z,98050.19
2023-03-19T03:38:00.002Z,98056.72
2023-03-19T03:40:51.006Z,98067.97
2023-03-19T03:43:39.433Z,98064.47
2023-03-19T03:46:27.269Z,98068.94
2023-03-19T03:49:15.157Z,98073.38
2023-03-19T03:52:04.336Z,98075.88
2023-03-19T03:54:52.463Z,98076.84
2023-03-19T03:57:40.166Z,98073.91
2023-03-19T04:00:28.066Z,98079.06
2023-03-19T04:03:16.161Z,98072.38
2023-03-19T04:06:04.136Z,98072.25
2023-03-19T04:08:53.508Z,98077.28
2023-03-19T04:11:42.883Z,98078.94
2023-03-19T04:14:30.554Z,98079.41
2023-03-19T04:17:18.534Z,98090.91
2023-03-19T04:20:07.662Z,98095.81
2023-03-19T04:22:55.756Z,98094.31
2023-03-19T04:25:45.030Z,98098.47
2023-03-19T04:28:32.870Z,98107.09
2023-03-19T04:31:20.556Z,98112.25
2023-03-19T04:34:08.718Z,98103.63
2023-03-19T04:36:56.694Z,98109.41
2023-03-19T04:39:45.180Z,98104.47
2023-03-19T04:42:34.196Z,98108.06
2023-03-19T04:45:22.117Z,98102.00
2023-03-19T04:48:10.096Z,98109.22
2023-03-19T04:50:58.200Z,98101.19
2023-03-19T04:53:46.052Z,98114.94
2023-03-19T04:56:34.464Z,98120.19
2023-03-19T04:59:23.871Z,98114.41
2023-03-19T05:02:11.892Z,98123.69
2023-03-19T05:04:59.731Z,98127.84
2023-03-19T05:07:47.767Z,98127.22
2023-03-19T05:10:36.594Z,98136.56
2023-03-19T05:13:24.517Z,98135.47
2023-03-19T05:16:13.992Z,98140.50
2023-03-19T05:19:02.412Z,98144.91
2023-03-19T05:21:50.377Z,98150.91
2023-03-19T05:24:38.391Z,98153.69
2023-03-19T05:27:26.583Z,98157.28
2023-03-19T05:30:14.994Z,98157.97
2023-03-19T05:33:04.464Z,98159.94
2023-03-19T05:35:53.132Z,98159.66
2023-03-19T05:38:40.874Z,98161.72
2023-03-19T05:41:28.877Z,98167.84
2023-03-19T05:44:17.019Z,98165.72
2023-03-19T05:47:04.732Z,98180.06
2023-03-19T05:49:53.764Z,98182.97
2023-03-19T05:52:41.373Z,98187.00
2023-03-19T05:55:29.341Z,98186.22
2023-03-19T05:58:18.241Z,98185.97
2023-03-19T06:01:06.399Z,98191.84
2023-03-19T06:03:54.138Z,98206.44
2023-03-19T06:06:43.604Z,98199.38
2023-03-19T06:09:31.879Z,98201.44
2023-03-19T06:12:19.755Z,98211.78
2023-03-19T06:15:09.125Z,98211.25
2023-03-19T06:17:57.024Z,98213.03
2023-03-19T06:20:45.514Z,98215.03
2023-03-19T06:23:34.984Z,98219.91
2023-03-19T06:26:23.256Z,98221.16
2023-03-19T06:29:11.449Z,98227.28
2023-03-19T06:31:59.457Z,98227.16
2023-03-19T06:34:47.360Z,98221.88
2023-03-19T06:37:35.655Z,98229.28
2023-03-19T06:40:25.060Z,98225.97
2023-03-19T06:43:13.023Z,98230.56
2023-03-19T06:46:01.479Z,98233.91
2023-03-19T06:48:49.581Z,98236.44
2023-03-19T06:51:37.309Z,98228.50
2023-03-19T06:54:25.662Z,98233.94
2023-03-19T06:57:14.939Z,98244.94
2023-03-19T07:00:04.106Z,98243.69
2023-03-19T07:02:52.013Z,98248.56
2023-03-19T07:05:39.881Z,98251.78
2023-03-19T07:08:29.730Z,98259.97
2023-03-19T07:11:17.927Z,98265.84
2023-03-19T07:14:07.580Z,98266.25
2023-03-19T07:16:55.731Z,98275.31
2023-03-19T07:19:43.891Z,98281.16
2023-03-19T07:22:31.953Z,98286.03
2023-03-19T07:25:19.841Z,98290.78
2023-03-19T07:28:08.012Z,98285.47
2023-03-19T07:30:57.661Z,98288.41
2023-03-19T07:33:45.988Z,98290.63
2023-03-19T07:36:33.934Z,98283.13
2023-03-19T07:39:22.125Z,98289.78
2023-03-19T07:42:10.037Z,98301.31
2023-03-19T07:44:57.738Z,98298.97
2023-03-19T07:47:50.196Z,98304.44
2023-03-19T07:50:38.290Z,98304.97
2023-03-19T07:53:26.281Z,98308.16
2023-03-19T07:56:14.397Z,98300.47
2023-03-19T07:59:02.507Z,98303.22
2023-03-19T08:01:50.687Z,98303.38
2023-03-19T08:04:40.535Z,98311.69
2023-03-19T08:07:28.309Z,98316.56
2023-03-19T08:10:16.212Z,98320.56
2023-03-19T08:13:05.188Z,98325.31
2023-03-19T08:15:53.547Z,98326.00
2023-03-19T08:18:41.409Z,98330.53
2023-03-19T08:21:33.544Z,98335.72
2023-03-19T08:24:21.739Z,98332.97
2023-03-19T08:27:10.136Z,98337.94
2023-03-19T08:29:57.916Z,98336.81
2023-03-19T08:32:45.936Z,98345.78
2023-03-19T08:35:34.077Z,98343.09
2023-03-19T08:38:23.471Z,98352.03
2023-03-19T08:41:11.671Z,98356.06
2023-03-19T08:43:59.433Z,98355.09
2023-03-19T08:46:47.317Z,98363.34
2023-03-19T08:49:35.515Z,98363.06
2023-03-19T08:52:23.447Z,98364.41
2023-03-19T08:55:12.902Z,98376.97
2023-03-19T08:58:00.885Z,98382.13
2023-03-19T09:00:49.236Z,98383.66
2023-03-19T09:03:37.440Z,98388.16
2023-03-19T09:06:25.360Z,98389.38
2023-03-19T09:09:13.280Z,98379.16
2023-03-19T09:12:02.670Z,98386.97
2023-03-19T09:14:50.470Z,98393.16
2023-03-19T09:17:38.393Z,98388.06
2023-03-19T09:20:26.445Z,98391.25
2023-03-19T09:23:14.367Z,98396.66
2023-03-19T09:26:02.388Z,98396.66
2023-03-19T09:28:51.671Z,98401.38
2023-03-19T09:31:39.798Z,98397.44
2023-03-19T09:34:30.860Z,98402.06
2023-03-19T09:37:19.024Z,98410.00
2023-03-19T09:40:09.608Z,98404.66
2023-03-19T09:43:07.671Z,98397.63
2023-03-19T09:45:57.852Z,98403.19
2023-03-19T09:48:51.389Z,98406.63
2023-03-19T09:51:46.088Z,98408.44
2023-03-19T09:54:37.937Z,98401.81
2023-03-19T09:57:26.082Z,98404.47
2023-03-19T10:00:23.367Z,98397.50
2023-03-19T10:03:30.886Z,98407.53
2023-03-19T10:06:29.658Z,98405.44
2023-03-19T10:09:36.611Z,98402.72
2023-03-19T10:12:48.555Z,98412.34
2023-03-19T10:15:39.212Z,98414.81
2023-03-19T10:18:32.324Z,98414.09
2023-03-19T10:21:26.483Z,98408.78
2023-03-19T10:24:20.022Z,98409.84
2023-03-19T10:27:14.636Z,98416.25
2023-03-19T10:30:02.643Z,98411.53
2023-03-19T10:32:55.667Z,98408.78
2023-03-19T10:35:46.492Z,98401.00
2023-03-19T10:38:34.292Z,98403.09
2023-03-19T10:41:33.391Z,98404.44
2023-03-19T10:44:30.942Z,98402.47
2023-03-19T10:47:22.661Z,98402.16
2023-03-19T10:50:18.534Z,98407.78
2023-03-19T10:53:29.370Z,98392.22
2023-03-19T10:56:23.086Z,98387.00
2023-03-19T10:59:23.769Z,98386.75
2023-03-19T11:02:19.954Z,98384.47
2023-03-19T11:05:20.383Z,98379.22
2023-03-19T11:08:35.557Z,98385.25
2023-03-19T11:11:36.897Z,98373.63
2023-03-19T11:14:32.691Z,98379.16
2023-03-19T11:17:25.685Z,98376.00
2023-03-19T11:20:24.537Z,98367.00
2023-03-19T11:23:17.885Z,98373.69
2023-03-19T11:26:06.241Z,98363.34
2023-03-19T11:28:57.422Z,98356.50
2023-03-19T11:31:56.051Z,98347.00
2023-03-19T11:34:52.629Z,98344.16
2023-03-19T11:37:54.416Z,98340.34
2023-03-19T11:40:51.344Z,98320.88
2023-03-19T11:43:52.053Z,98317.78
2023-03-19T11:46:48.129Z,98300.63
2023-03-19T11:49:53.918Z,98292.09
2023-03-19T11:52:53.223Z,98293.97
2023-03-19T11:55:47.729Z,98286.47
2023-03-19T11:59:19.937Z,98282.81
2023-03-19T12:02:49.517Z,98273.16
2023-03-19T12:05:46.268Z,98268.78
2023-03-19T12:08:40.469Z,98260.94
2023-03-19T12:11:40.611Z,98264.56
2023-03-19T12:14:43.334Z,98254.16
2023-03-19T12:17:43.920Z,98252.66
2023-03-19T12:20:39.268Z,98255.19
2023-03-19T12:23:48.806Z,98243.97
2023-03-19T12:26:50.869Z,98244.03
2023-03-19T12:29:46.928Z,98233.63
2023-03-19T12:32:53.990Z,98240.69
2023-03-19T12:35:47.234Z,98226.50
2023-03-19T12:38:42.677Z,98214.38
2023-03-19T12:41:31.446Z,98205.00
2023-03-19T12:44:24.619Z,98211.00
2023-03-19T12:47:18.008Z,98208.50
2023-03-19T12:50:08.349Z,98208.59
2023-03-19T12:52:59.569Z,98217.50
2023-03-19T12:55:51.340Z,98214.75
2023-03-19T12:58:49.842Z,98190.66
2023-03-19T13:01:43.581Z,98184.97
2023-03-19T13:04:39.427Z,98183.81
2023-03-19T13:07:34.175Z,98185.88
2023-03-19T13:10:23.122Z,98176.66
2023-03-19T13:13:28.673Z,98180.63
2023-03-19T13:16:31.502Z,98178.44
2023-03-19T13:19:29.465Z,98173.44
2023-03-19T13:22:25.751Z,98179.13
2023-03-19T13:25:19.157Z,98184.69
2023-03-19T13:28:11.098Z,98177.75
2023-03-19T13:31:04.084Z,98168.94
2023-03-19T13:34:01.753Z,98170.03
2023-03-19T13:36:56.872Z,98168.03
2023-03-19T13:39:46.340Z,98174.06
2023-03-19T13:42:42.056Z,98170.59
2023-03-19T13:45:35.700Z,98163.19
2023-03-19T13:48:36.690Z,98155.06
2023-03-19T13:51:31.248Z,98147.28
2023-03-19T13:54:23.541Z,98149.09
2023-03-19T13:57:40.381Z,98144.75
2023-03-19T14:00:58.128Z,98135.91
2023-03-19T14:03:56.265Z,98136.00
2023-03-19T14:06:48.060Z,98136.00
2023-03-19T14:09:39.801Z,98144.13
2023-03-19T14:12:35.026Z,98127.44
2023-03-19T14:15:25.074Z,98129.09
2023-03-19T14:18:20.109Z,98133.84
2023-03-19T14:21:13.093Z,98130.03
2023-03-19T14:24:54.859Z,98132.84
2023-03-19T14:27:33.805Z,98120.53
2023-03-19T14:30:31.555Z,98120.53
2023-03-19T14:33:26.397Z,98124.56
2023-03-19T14:36:18.232Z,98132.03
2023-03-19T14:39:16.900Z,98130.47
2023-03-19T14:42:09.484Z,98118.28
2023-03-19T14:45:29.098Z,98125.34
2023-03-19T14:48:37.422Z,98130.28
2023-03-19T14:51:51.731Z,98129.63
2023-03-19T14:54:45.667Z,98129.75
2023-03-19T14:57:35.879Z,98127.50
2023-03-19T15:00:25.337Z,98117.00
2023-03-19T15:03:23.533Z,98118.78
2023-03-19T15:06:15.882Z,98118.38
2023-03-19T15:09:07.377Z,98119.38
2023-03-19T15:12:31.268Z,98115.53
2023-03-19T15:15:37.117Z,98112.59
2023-03-19T15:18:27.693Z,98114.31
2023-03-19T15:21:16.269Z,98112.81
2023-03-19T15:24:07.026Z,98103.69
2023-03-19T15:26:55.032Z,98101.75
2023-03-19T15:29:42.860Z,98098.22
2023-03-19T15:33:07.165Z,98092.66
2023-03-19T15:35:46.157Z,98093.75
2023-03-19T15:38:39.406Z,98087.22
2023-03-19T15:41:31.241Z,98092.53
2023-03-19T15:44:25.137Z,98093.91
2023-03-19T15:47:18.927Z,98088.81
2023-03-19T15:50:13.362Z,98082.25
2023-03-19T15:53:05.825Z,98096.13
2023-03-19T15:55:55.710Z,98106.00
2023-03-19T15:58:48.057Z,98089.53
2023-03-19T16:01:36.224Z,98085.91
2023-03-19T16:04:29.526Z,98095.16
2023-03-19T16:07:27.671Z,98090.84
2023-03-19T16:10:40.665Z,98096.50
2023-03-19T16:13:31.867Z,98079.84
2023-03-19T16:16:23.702Z,98091.63
2023-03-19T16:19:34.757Z,98090.13
2023-03-19T16:22:26.673Z,98081.66
2023-03-19T16:25:19.167Z,98087.31
2023-03-19T16:28:07.057Z,98092.75
2023-03-19T16:30:55.023Z,98096.94
2023-03-19T16:33:44.077Z,98111.09
2023-03-19T16:36:34.152Z,98100.38
2023-03-19T16:39:33.852Z,98115.13
2023-03-19T16:42:40.288Z,98121.56
2023-03-19T16:45:29.516Z,98124.66
2023-03-19T16:48:17.539Z,98131.31
2023-03-19T16:51:06.752Z,98135.28
2023-03-19T16:53:54.860Z,98144.34
2023-03-19T16:56:44.435Z,98143.69
2023-03-19T16:59:32.939Z,98152.16
2023-03-19T17:02:21.261Z,98149.59
2023-03-19T17:05:15.046Z,98144.59
2023-03-19T17:08:02.928Z,98156.53
2023-03-19T17:10:53.150Z,98164.94
2023-03-19T17:13:43.738Z,98164.22
2023-03-19T17:16:32.047Z,98169.91
2023-03-19T17:19:24.146Z,98168.19
2023-03-19T17:22:14.409Z,98177.50
2023-03-19T17:25:02.611Z,98180.66
2023-03-19T17:27:50.566Z,98187.97
2023-03-19T17:30:40.906Z,98196.47
2023-03-19T17:33:30.786Z,98191.34
2023-03-19T17:36:18.624Z,98194.28
2023-03-19T17:39:07.844Z,98196.31
2023-03-19T17:41:55.594Z,98208.88
2023-03-19T17:44:43.767Z,98204.59
2023-03-19T17:47:35.246Z,98207.44
2023-03-19T17:50:25.394Z,98218.34
2023-03-19T17:53:14.854Z,98224.50
2023-03-19T17:56:03.209Z,98233.34
2023-03-19T17:58:51.144Z,98246.50
2023-03-19T18:01:40.776Z,98243.56
2023-03-19T18:04:30.479Z,98241.47
2023-03-19T18:07:18.181Z,98243.75
2023-03-19T18:10:06.652Z,98249.53
2023-03-19T18:12:54.791Z,98256.09
2023-03-19T18:15:45.048Z,98267.66
2023-03-19T18:18:33.067Z,98288.50
2023-03-19T18:21:22.374Z,98291.72
2023-03-19T18:24:11.851Z,98302.25
2023-03-19T18:26:59.406Z,98296.69
2023-03-19T18:29:47.466Z,98313.38
2023-03-19T18:32:35.509Z,98313.59
2023-03-19T18:35:27.281Z,98312.94
2023-03-19T18:38:19.180Z,98322.94
2023-03-19T18:41:07.167Z,98324.66
2023-03-19T18:43:54.892Z,98327.16
2023-03-19T18:46:43.797Z,98340.84
2023-03-19T18:49:31.949Z,98338.47
2023-03-19T18:52:19.997Z,98344.66
2023-03-19T18:55:10.986Z,98335.50
2023-03-19T18:58:02.090Z,98342.50
2023-03-19T19:00:51.656Z,98343.34
2023-03-19T19:03:39.840Z,98353.84
2023-03-19T19:06:45.884Z,98352.19
2023-03-19T19:09:34.465Z,98356.00
2023-03-19T19:12:24.019Z,98366.50
2023-03-19T19:15:20.286Z,98377.00
2023-03-19T19:18:16.847Z,98378.34
2023-03-19T19:21:04.668Z,98370.66
2023-03-19T19:23:52.745Z,98376.16
2023-03-19T19:26:40.790Z,98366.97
2023-03-19T19:29:31.359Z,98374.63
2023-03-19T19:32:22.628Z,98369.94
2023-03-19T19:35:18.895Z,98371.59
2023-03-19T19:38:07.165Z,98381.91
2023-03-19T19:40:58.298Z,98376.88
2023-03-19T19:43:48.086Z,98379.22
2023-03-19T19:46:37.478Z,98369.22
2023-03-19T19:49:25.339Z,98380.19
2023-03-19T19:52:15.586Z,98376.34
2023-03-19T19:55:03.369Z,98379.44
2023-03-19T19:57:51.752Z,98380.75
2023-03-19T20:00:45.585Z,98388.72
2023-03-19T20:03:37.910Z,98398.16
2023-03-19T20:06:26.583Z,98411.31
2023-03-19T20:09:14.422Z,98406.31
2023-03-19T20:12:03.813Z,98406.78
2023-03-19T20:14:52.782Z,98402.94
2023-03-19T20:17:41.446Z,98409.53
2023-03-19T20:20:33.519Z,98411.69
2023-03-19T20:23:21.756Z,98422.81
2023-03-19T20:26:14.044Z,98418.13
2023-03-19T20:29:02.070Z,98417.59
2023-03-19T20:31:49.711Z,98413.72
2023-03-19T20:34:39.670Z,98425.91
2023-03-19T20:37:29.740Z,98424.88
2023-03-19T20:40:18.026Z,98420.69
2023-03-19T20:43:08.584Z,98423.66
2023-03-19T20:45:57.825Z,98423.81
2023-03-19T20:48:45.855Z,98427.78
2023-03-19T20:51:34.169Z,98421.06
2023-03-19T20:54:23.688Z,98427.69
2023-03-19T20:57:15.589Z,98430.66
2023-03-19T21:00:17.634Z,98432.09
2023-03-19T21:03:05.938Z,98438.72
2023-03-19T21:05:58.034Z,98428.84
2023-03-19T21:08:48.622Z,98434.47
2023-03-19T21:11:41.768Z,98438.72
2023-03-19T21:14:29.335Z,98445.16
2023-03-19T21:17:18.214Z,98441.28
2023-03-19T21:20:06.685Z,98448.88
2023-03-19T21:22:58.685Z,98439.66
2023-03-19T21:25:47.849Z,98441.94
2023-03-19T21:28:38.850Z,98450.31
2023-03-19T21:31:27.421Z,98443.66
2023-03-19T21:34:16.484Z,98440.59
2023-03-19T21:37:04.691Z,98442.19
2023-03-19T21:39:52.477Z,98443.47
2023-03-19T21:42:40.443Z,98445.41
2023-03-19T21:45:32.483Z,98443.91
2023-03-19T21:48:26.111Z,98437.38
2023-03-19T21:51:16.292Z,98441.84
2023-03-19T21:54:05.723Z,98442.97
2023-03-19T21:56:53.760Z,98434.47
2023-03-19T21:59:42.856Z,98443.69
2023-03-19T22:02:50.336Z,98443.00
2023-03-19T22:05:38.064Z,98441.63
2023-03-19T22:08:27.217Z,98439.97
2023-03-19T22:11:18.284Z,98448.22
2023-03-19T22:14:08.334Z,98441.38
2023-03-19T22:16:57.057Z,98437.34
2023-03-19T22:19:46.354Z,98438.31
2023-03-19T22:22:34.187Z,98444.59
2023-03-19T22:25:23.371Z,98440.28
2023-03-19T22:28:17.924Z,98443.38
2023-03-19T22:31:06.176Z,98451.47
2023-03-19T22:33:54.083Z,98453.97
2023-03-19T22:36:43.116Z,98446.59
2023-03-19T22:39:31.378Z,98455.41
2023-03-19T22:42:19.892Z,98463.78
2023-03-19T22:45:09.236Z,98459.91
2023-03-19T22:48:01.152Z,98465.50
2023-03-19T22:50:48.961Z,98463.25
2023-03-19T22:53:39.006Z,98455.72
2023-03-19T22:56:26.862Z,98450.72
2023-03-19T22:59:15.109Z,98460.75
2023-03-19T23:02:03.004Z,98453.25
2023-03-19T23:04:51.009Z,98450.19
2023-03-19T23:07:38.936Z,98444.31
2023-03-19T23:10:30.546Z,98450.75
2023-03-19T23:13:18.356Z,98452.88
2023-03-19T23:16:18.225Z,98460.09
2023-03-19T23:19:06.364Z,98459.41
2023-03-19T23:21:54.598Z,98463.88
2023-03-19T23:24:44.765Z,98463.88
2023-03-19T23:27:34.393Z,98465.56
2023-03-19T23:30:26.164Z,98462.19
2023-03-19T23:33:14.500Z,98462.47
2023-03-19T23:36:03.056Z,98465.41
2023-03-19T23:38:51.724Z,98465.69
2023-03-19T23:41:48.210Z,98465.00
2023-03-19T23:44:38.800Z,98461.91
2023-03-19T23:47:27.088Z,98464.72
2023-03-19T23:50:14.956Z,98457.19
2023-03-19T23:53:02.888Z,98460.81
2023-03-19T23:55:52.962Z,98461.38
2023-03-19T23:58:43.163Z,98468.91
